PWSweather.com
Personal Weather Stations
Station Observations
COOKEVILLE
Bilbrey Park, Cookeville, TN 38501

Bilbrey ParkCookeville, TN 38501

Lat: 36.174708, Lon: -85.463771

Elevation: 1102

Station Type: Davis Vantage Vue

http://www.cookevilleweatherguy.com

Latest ConditionsUpdated 10:20:01 PM CST Sunday, Jan 25, 2015
Currently Today's Max Today's Min Today's Average
Temperature 43.1°F6.2°C 54.3°F12.4°C 37.7°F3.2°C 45.1°F7.3°C
Dew Point 40.9°F4.9°C 42.8°F6.0°C 32.1°F0.1°C 36.7°F2.6°C
Winds 6.0 mph NW9.7 kmh NW 18.0 mph SW29.0 kmh SW - 4.7 mph 7.6 kmh
Wind Gusts 13.0 mph20.9 kmh 22.0 mph35.4 kmh - -
Humidity 92% 94% 52% 73%
Pressure 29.68 in1005.1 mb 29.92 in1013.2 mb 29.63 in1003.4 mb -
Hour Temp Dew Point Humidity Winds Wind Gusts Pressure Precip Precip Rate Daily Precip Total
10:20 PM 43.1°F6.2°C 40.9°F4.9°C 92% 6.0 mph NW9.7 kmh NW 13.0 mph20.9 kmh 29.68 in1005.1 mb 0.09 in2.3 mm 0.24 in/hr6.1 mm/hr 0.16 in4.1 mm
10:15 PM 43.6°F6.4°C 42.0°F5.6°C 94% 3.0 mph NW4.8 kmh NW 6.0 mph9.7 kmh 29.68 in1005.1 mb 0.07 in1.8 mm 0.12 in/hr3.0 mm/hr 0.14 in3.6 mm
10:10 PM 43.7°F6.5°C 41.8°F5.4°C 93% Calm Calm 6.0 mph9.7 kmh 29.67 in1004.7 mb 0.06 in1.5 mm 0.12 in/hr3.0 mm/hr 0.13 in3.3 mm
10:05 PM 43.7°F6.5°C 41.8°F5.4°C 93% 4.0 mph SW6.4 kmh SW 6.0 mph9.7 kmh 29.67 in1004.7 mb 0.05 in1.3 mm 0.12 in/hr3.0 mm/hr 0.12 in3.0 mm
10:00 PM 43.7°F6.5°C 41.8°F5.4°C 93% 1.0 mph SE1.6 kmh SE 6.0 mph9.7 kmh 29.67 in1004.7 mb 0.04 in1.0 mm 0.01 in/hr0.3 mm/hr 0.11 in2.8 mm
09:55 PM 43.8°F6.6°C 41.9°F5.5°C 93% Calm Calm 6.0 mph9.7 kmh 29.67 in1004.7 mb 0.03 in0.8 mm 0.12 in/hr3.0 mm/hr 0.10 in2.5 mm
09:50 PM 43.9°F6.6°C 41.7°F5.4°C 92% 2.0 mph SSE3.2 kmh SSE 4.0 mph6.4 kmh 29.67 in1004.7 mb 0.02 in0.5 mm 0.12 in/hr3.0 mm/hr 0.09 in2.3 mm
09:45 PM 44.0°F6.7°C 41.8°F5.4°C 92% Calm Calm 3.0 mph4.8 kmh 29.67 in1004.7 mb 0.01 in0.3 mm 0.00 in/hr0.0 mm/hr 0.08 in2.0 mm
09:40 PM 44.2°F6.8°C 41.7°F5.4°C 91% 3.0 mph SSE4.8 kmh SSE 6.0 mph9.7 kmh 29.67 in1004.7 mb 0.01 in0.3 mm 0.12 in/hr3.0 mm/hr 0.08 in2.0 mm
09:35 PM 44.3°F6.8°C 41.8°F5.4°C 91% 2.0 mph S3.2 kmh S 6.0 mph9.7 kmh 29.67 in1004.7 mb 0.00 in0.0 mm 0.00 in/hr0.0 mm/hr 0.07 in1.8 mm
09:30 PM 44.4°F6.9°C 41.7°F5.4°C 90% 3.0 mph SSW4.8 kmh SSW 6.0 mph9.7 kmh 29.67 in1004.7 mb 0.00 in0.0 mm 0.00 in/hr0.0 mm/hr 0.07 in1.8 mm
09:25 PM 44.4°F6.9°C 41.7°F5.4°C 90% 3.0 mph SSE4.8 kmh SSE 6.0 mph9.7 kmh 29.68 in1005.1 mb 0.00 in0.0 mm 0.00 in/hr0.0 mm/hr 0.07 in1.8 mm
09:20 PM 44.5°F6.9°C 41.8°F5.4°C 90% 5.0 mph SSW8.0 kmh SSW 7.0 mph11.3 kmh 29.68 in1005.1 mb 0.00 in0.0 mm 0.00 in/hr0.0 mm/hr 0.07 in1.8 mm
09:15 PM 44.6°F7.0°C 41.9°F5.5°C 90% 1.0 mph SE1.6 kmh SE 7.0 mph11.3 kmh 29.68 in1005.1 mb 0.00 in0.0 mm 0.00 in/hr0.0 mm/hr 0.07 in1.8 mm
09:10 PM 44.6°F7.0°C 41.9°F5.5°C 90% 5.0 mph SW8.0 kmh SW 12.0 mph19.3 kmh 29.68 in1005.1 mb 0.00 in0.0 mm 0.00 in/hr0.0 mm/hr 0.07 in1.8 mm
09:05 PM 44.6°F7.0°C 41.9°F5.5°C 90% Calm Calm 12.0 mph19.3 kmh 29.68 in1005.1 mb 0.00 in0.0 mm 0.00 in/hr0.0 mm/hr 0.07 in1.8 mm
09:00 PM 44.6°F7.0°C 41.9°F5.5°C 90% 1.0 mph SE1.6 kmh SE 10.0 mph16.1 kmh 29.68 in1005.1 mb 0.00 in0.0 mm 0.00 in/hr0.0 mm/hr 0.07 in1.8 mm
08:55 PM 44.6°F7.0°C 41.9°F5.5°C 90% 4.0 mph SW6.4 kmh SW 10.0 mph16.1 kmh 29.69 in1005.4 mb 0.00 in0.0 mm 0.00 in/hr0.0 mm/hr 0.07 in1.8 mm
08:50 PM 44.6°F7.0°C 41.9°F5.5°C 90% 2.0 mph S3.2 kmh S 7.0 mph11.3 kmh 29.69 in1005.4 mb 0.00 in0.0 mm 0.00 in/hr0.0 mm/hr 0.07 in1.8 mm
08:45 PM 44.6°F7.0°C 41.9°F5.5°C 90% 2.0 mph WSW3.2 kmh WSW 6.0 mph9.7 kmh 29.69 in1005.4 mb 0.00 in0.0 mm 0.00 in/hr0.0 mm/hr 0.07 in1.8 mm
08:40 PM 44.7°F7.1°C 42.0°F5.6°C 90% 4.0 mph SW6.4 kmh SW 10.0 mph16.1 kmh 29.69 in1005.4 mb 0.00 in0.0 mm 0.00 in/hr0.0 mm/hr 0.07 in1.8 mm
08:35 PM 44.7°F7.1°C 42.0°F5.6°C 90% 5.0 mph WSW8.0 kmh WSW 10.0 mph16.1 kmh 29.69 in1005.4 mb 0.00 in0.0 mm 0.00 in/hr0.0 mm/hr 0.07 in1.8 mm
08:30 PM 44.6°F7.0°C 41.9°F5.5°C 90% 1.0 mph SSW1.6 kmh SSW 6.0 mph9.7 kmh 29.69 in1005.4 mb 0.00 in0.0 mm 0.00 in/hr0.0 mm/hr 0.07 in1.8 mm
08:25 PM 44.7°F7.1°C 42.2°F5.7°C 91% 1.0 mph SE1.6 kmh SE 6.0 mph9.7 kmh 29.69 in1005.4 mb 0.00 in0.0 mm 0.00 in/hr0.0 mm/hr 0.07 in1.8 mm
08:20 PM 44.7°F7.1°C 42.2°F5.7°C 91% 1.0 mph S1.6 kmh S 10.0 mph16.1 kmh 29.69 in1005.4 mb 0.00 in0.0 mm 0.00 in/hr0.0 mm/hr 0.07 in1.8 mm
08:15 PM 44.6°F7.0°C 42.1°F5.6°C 91% 2.0 mph SSW3.2 kmh SSW 10.0 mph16.1 kmh 29.69 in1005.4 mb 0.00 in0.0 mm 0.00 in/hr0.0 mm/hr 0.07 in1.8 mm
08:10 PM 44.6°F7.0°C 42.1°F5.6°C 91% 1.0 mph SSW1.6 kmh SSW 8.0 mph12.9 kmh 29.70 in1005.8 mb 0.00 in0.0 mm 0.00 in/hr0.0 mm/hr 0.07 in1.8 mm
08:05 PM 44.6°F7.0°C 42.1°F5.6°C 91% 3.0 mph SSW4.8 kmh SSW 5.0 mph8.0 kmh 29.70 in1005.8 mb 0.00 in0.0 mm 0.00 in/hr0.0 mm/hr 0.07 in1.8 mm
08:00 PM 44.5°F6.9°C 42.3°F5.7°C 92% 6.0 mph S9.7 kmh S 6.0 mph9.7 kmh 29.70 in1005.8 mb 0.01 in0.3 mm 0.00 in/hr0.0 mm/hr 0.07 in1.8 mm
07:55 PM 44.5°F6.9°C 42.3°F5.7°C 92% 2.0 mph S3.2 kmh S 6.0 mph9.7 kmh 29.70 in1005.8 mb 0.01 in0.3 mm 0.00 in/hr0.0 mm/hr 0.07 in1.8 mm
07:50 PM 44.6°F7.0°C 42.4°F5.8°C 92% 3.0 mph SW4.8 kmh SW 5.0 mph8.0 kmh 29.70 in1005.8 mb 0.02 in0.5 mm 0.00 in/hr0.0 mm/hr 0.07 in1.8 mm
07:45 PM 44.6°F7.0°C 42.7°F5.9°C 93% 1.0 mph SW1.6 kmh SW 4.0 mph6.4 kmh 29.70 in1005.8 mb 0.02 in0.5 mm 0.00 in/hr0.0 mm/hr 0.07 in1.8 mm
07:40 PM 44.7°F7.1°C 42.5°F5.8°C 92% 1.0 mph SSW1.6 kmh SSW 3.0 mph4.8 kmh 29.70 in1005.8 mb 0.03 in0.8 mm 0.00 in/hr0.0 mm/hr 0.07 in1.8 mm
07:35 PM 44.7°F7.1°C 42.5°F5.8°C 92% 1.0 mph S1.6 kmh S 3.0 mph4.8 kmh 29.70 in1005.8 mb 0.03 in0.8 mm 0.00 in/hr0.0 mm/hr 0.07 in1.8 mm
07:30 PM 44.7°F7.1°C 42.5°F5.8°C 92% 2.0 mph S3.2 kmh S 3.0 mph4.8 kmh 29.70 in1005.8 mb 0.04 in1.0 mm 0.00 in/hr0.0 mm/hr 0.07 in1.8 mm
07:25 PM 44.8°F7.1°C 42.3°F5.7°C 91% Calm Calm 3.0 mph4.8 kmh 29.70 in1005.8 mb 0.04 in1.0 mm 0.00 in/hr0.0 mm/hr 0.07 in1.8 mm
07:20 PM 44.9°F7.2°C 42.4°F5.8°C 91% Calm Calm 6.0 mph9.7 kmh 29.69 in1005.4 mb 0.06 in1.5 mm 0.00 in/hr0.0 mm/hr 0.07 in1.8 mm
07:15 PM 45.1°F7.3°C 42.6°F5.9°C 91% 1.0 mph SW1.6 kmh SW 6.0 mph9.7 kmh 29.69 in1005.4 mb 0.06 in1.5 mm 0.00 in/hr0.0 mm/hr 0.07 in1.8 mm
07:10 PM 45.2°F7.3°C 42.5°F5.8°C 90% Calm Calm 11.0 mph17.7 kmh 29.69 in1005.4 mb 0.06 in1.5 mm 0.00 in/hr0.0 mm/hr 0.07 in1.8 mm
07:05 PM 45.3°F7.4°C 42.8°F6.0°C 91% 5.0 mph WSW8.0 kmh WSW 11.0 mph17.7 kmh 29.69 in1005.4 mb 0.06 in1.5 mm 0.00 in/hr0.0 mm/hr 0.07 in1.8 mm
07:00 PM 45.4°F7.4°C 42.6°F5.9°C 90% 3.0 mph SSW4.8 kmh SSW 10.0 mph16.1 kmh 29.69 in1005.4 mb 0.06 in1.5 mm 0.01 in/hr0.3 mm/hr 0.07 in1.8 mm
06:55 PM 45.5°F7.5°C 42.7°F5.9°C 90% 4.0 mph SW6.4 kmh SW 10.0 mph16.1 kmh 29.69 in1005.4 mb 0.05 in1.3 mm 0.00 in/hr0.0 mm/hr 0.06 in1.5 mm
06:50 PM 45.4°F7.4°C 42.6°F5.9°C 90% 2.0 mph SW3.2 kmh SW 10.0 mph16.1 kmh 29.68 in1005.1 mb 0.06 in1.5 mm 0.00 in/hr0.0 mm/hr 0.06 in1.5 mm
06:45 PM 45.5°F7.5°C 42.5°F5.8°C 89% 2.0 mph SSW3.2 kmh SSW 5.0 mph8.0 kmh 29.68 in1005.1 mb 0.06 in1.5 mm 0.12 in/hr3.0 mm/hr 0.06 in1.5 mm
06:40 PM 45.7°F7.6°C 42.4°F5.8°C 88% 1.0 mph SE1.6 kmh SE 4.0 mph6.4 kmh 29.68 in1005.1 mb 0.05 in1.3 mm 0.00 in/hr0.0 mm/hr 0.05 in1.3 mm
06:35 PM 46.1°F7.8°C 42.5°F5.8°C 87% 1.0 mph SSW1.6 kmh SSW 2.0 mph3.2 kmh 29.68 in1005.1 mb 0.05 in1.3 mm 0.00 in/hr0.0 mm/hr 0.05 in1.3 mm
06:30 PM 46.3°F7.9°C 42.1°F5.6°C 85% 1.0 mph SW1.6 kmh SW 3.0 mph4.8 kmh 29.68 in1005.1 mb 0.05 in1.3 mm 0.12 in/hr3.0 mm/hr 0.05 in1.3 mm
06:25 PM 46.5°F8.1°C 42.2°F5.7°C 85% 2.0 mph SW3.2 kmh SW 3.0 mph4.8 kmh 29.67 in1004.7 mb 0.04 in1.0 mm 0.00 in/hr0.0 mm/hr 0.04 in1.0 mm
06:20 PM 46.8°F8.2°C 41.9°F5.5°C 83% 1.0 mph SSW1.6 kmh SSW 6.0 mph9.7 kmh 29.67 in1004.7 mb 0.04 in1.0 mm 0.12 in/hr3.0 mm/hr 0.04 in1.0 mm
06:15 PM 47.0°F8.3°C 41.8°F5.4°C 82% 1.0 mph SSW1.6 kmh SSW 6.0 mph9.7 kmh 29.67 in1004.7 mb 0.03 in0.8 mm 0.12 in/hr3.0 mm/hr 0.03 in0.8 mm
06:10 PM 47.1°F8.4°C 41.9°F5.5°C 82% 2.0 mph S3.2 kmh S 9.0 mph14.5 kmh 29.67 in1004.7 mb 0.02 in0.5 mm 0.00 in/hr0.0 mm/hr 0.02 in0.5 mm
06:05 PM 47.2°F8.4°C 41.7°F5.4°C 81% 3.0 mph SSW4.8 kmh SSW 9.0 mph14.5 kmh 29.67 in1004.7 mb 0.02 in0.5 mm 0.00 in/hr0.0 mm/hr 0.02 in0.5 mm
06:00 PM 47.2°F8.4°C 41.4°F5.2°C 80% 2.0 mph SE3.2 kmh SE 12.0 mph19.3 kmh 29.67 in1004.7 mb 0.02 in0.5 mm 0.00 in/hr0.0 mm/hr 0.02 in0.5 mm
05:55 PM 47.1°F8.4°C 41.6°F5.3°C 81% 2.0 mph SE3.2 kmh SE 12.0 mph19.3 kmh 29.67 in1004.7 mb 0.02 in0.5 mm 0.00 in/hr0.0 mm/hr 0.02 in0.5 mm
05:50 PM 47.2°F8.4°C 42.0°F5.6°C 82% 2.0 mph SE3.2 kmh SE 6.0 mph9.7 kmh 29.67 in1004.7 mb 0.02 in0.5 mm 0.00 in/hr0.0 mm/hr 0.02 in0.5 mm
05:45 PM 47.7°F8.7°C 41.8°F5.4°C 80% 3.0 mph SSW4.8 kmh SSW 6.0 mph9.7 kmh 29.67 in1004.7 mb 0.02 in0.5 mm 0.12 in/hr3.0 mm/hr 0.02 in0.5 mm
05:40 PM 48.1°F8.9°C 41.2°F5.1°C 77% 2.0 mph S3.2 kmh S 9.0 mph14.5 kmh 29.67 in1004.7 mb 0.01 in0.3 mm 0.00 in/hr0.0 mm/hr 0.01 in0.3 mm
05:35 PM 48.3°F9.1°C 40.8°F4.9°C 75% 4.0 mph SW6.4 kmh SW 9.0 mph14.5 kmh 29.67 in1004.7 mb 0.01 in0.3 mm 0.00 in/hr0.0 mm/hr 0.01 in0.3 mm
05:30 PM 48.5°F9.2°C 41.0°F5.0°C 75% 3.0 mph S4.8 kmh S 8.0 mph12.9 kmh 29.67 in1004.7 mb 0.01 in0.3 mm 0.00 in/hr0.0 mm/hr 0.01 in0.3 mm
05:25 PM 48.9°F9.4°C 40.6°F4.8°C 73% 4.0 mph ESE6.4 kmh ESE 6.0 mph9.7 kmh 29.67 in1004.7 mb 0.01 in0.3 mm 0.12 in/hr3.0 mm/hr 0.01 in0.3 mm
05:20 PM 49.4°F9.7°C 40.8°F4.9°C 72% 3.0 mph SSW4.8 kmh SSW 11.0 mph17.7 kmh 29.67 in1004.7 mb 0.00 in0.0 mm 0.00 in/hr0.0 mm/hr 0.00 in0.0 mm
05:15 PM 49.7°F9.8°C 40.0°F4.4°C 69% 5.0 mph SSE8.0 kmh SSE 11.0 mph17.7 kmh 29.66 in1004.4 mb 0.00 in0.0 mm 0.00 in/hr0.0 mm/hr 0.00 in0.0 mm
05:10 PM 49.7°F9.8°C 40.0°F4.4°C 69% 6.0 mph S9.7 kmh S 9.0 mph14.5 kmh 29.66 in1004.4 mb 0.00 in0.0 mm 0.00 in/hr0.0 mm/hr 0.00 in0.0 mm
05:05 PM 49.8°F9.9°C 39.7°F4.3°C 68% 4.0 mph SW6.4 kmh SW 8.0 mph12.9 kmh 29.65 in1004.1 mb 0.00 in0.0 mm 0.00 in/hr0.0 mm/hr 0.00 in0.0 mm
05:00 PM 49.9°F9.9°C 39.8°F4.3°C 68% 3.0 mph SE4.8 kmh SE 12.0 mph19.3 kmh 29.65 in1004.1 mb 0.00 in0.0 mm 0.00 in/hr0.0 mm/hr 0.00 in0.0 mm
04:55 PM 50.0°F10.0°C 39.5°F4.2°C 67% 4.0 mph S6.4 kmh S 12.0 mph19.3 kmh 29.65 in1004.1 mb 0.00 in0.0 mm 0.00 in/hr0.0 mm/hr 0.00 in0.0 mm
04:50 PM 50.1°F10.1°C 39.6°F4.2°C 67% 5.0 mph S8.0 kmh S 13.0 mph20.9 kmh 29.65 in1004.1 mb 0.00 in0.0 mm 0.00 in/hr0.0 mm/hr 0.00 in0.0 mm
04:45 PM 50.1°F10.1°C 39.6°F4.2°C 67% 3.0 mph SSW4.8 kmh SSW 13.0 mph20.9 kmh 29.65 in1004.1 mb 0.00 in0.0 mm 0.00 in/hr0.0 mm/hr 0.00 in0.0 mm
04:40 PM 50.2°F10.1°C 39.7°F4.3°C 67% 7.0 mph S11.3 kmh S 15.0 mph24.1 kmh 29.64 in1003.7 mb 0.00 in0.0 mm 0.00 in/hr0.0 mm/hr 0.00 in0.0 mm
04:35 PM 50.2°F10.1°C 39.3°F4.1°C 66% 6.0 mph SE9.7 kmh SE 15.0 mph24.1 kmh 29.64 in1003.7 mb 0.00 in0.0 mm 0.00 in/hr0.0 mm/hr 0.00 in0.0 mm
04:30 PM 50.1°F10.1°C 39.6°F4.2°C 67% 8.0 mph S12.9 kmh S 16.0 mph25.7 kmh 29.64 in1003.7 mb 0.00 in0.0 mm 0.00 in/hr0.0 mm/hr 0.00 in0.0 mm
04:25 PM 49.9°F9.9°C 39.8°F4.3°C 68% 10.0 mph S16.1 kmh S 16.0 mph25.7 kmh 29.64 in1003.7 mb 0.00 in0.0 mm 0.00 in/hr0.0 mm/hr 0.00 in0.0 mm
04:20 PM 49.7°F9.8°C 40.0°F4.4°C 69% 4.0 mph SSW6.4 kmh SSW 10.0 mph16.1 kmh 29.64 in1003.7 mb 0.00 in0.0 mm 0.00 in/hr0.0 mm/hr 0.00 in0.0 mm
04:15 PM 49.7°F9.8°C 40.3°F4.6°C 70% 3.0 mph SE4.8 kmh SE 9.0 mph14.5 kmh 29.64 in1003.7 mb 0.00 in0.0 mm 0.00 in/hr0.0 mm/hr 0.00 in0.0 mm
04:10 PM 49.9°F9.9°C 40.2°F4.6°C 69% 7.0 mph SW11.3 kmh SW 11.0 mph17.7 kmh 29.64 in1003.7 mb 0.00 in0.0 mm 0.00 in/hr0.0 mm/hr 0.00 in0.0 mm
04:05 PM 50.3°F10.2°C 40.2°F4.6°C 68% 5.0 mph S8.0 kmh S 10.0 mph16.1 kmh 29.63 in1003.4 mb 0.00 in0.0 mm 0.00 in/hr0.0 mm/hr 0.00 in0.0 mm
04:00 PM 51.0°F10.6°C 40.1°F4.5°C 66% 5.0 mph S8.0 kmh S 22.0 mph35.4 kmh 29.65 in1004.1 mb 0.00 in0.0 mm 0.00 in/hr0.0 mm/hr 0.00 in0.0 mm
03:55 PM 51.8°F11.0°C 39.6°F4.2°C 63% 8.0 mph SW12.9 kmh SW 22.0 mph35.4 kmh 29.66 in1004.4 mb 0.00 in0.0 mm 0.00 in/hr0.0 mm/hr 0.00 in0.0 mm
03:50 PM 52.9°F11.6°C 38.5°F3.6°C 58% 14.0 mph SSW22.5 kmh SSW 20.0 mph32.2 kmh 29.66 in1004.4 mb 0.00 in0.0 mm 0.00 in/hr0.0 mm/hr 0.00 in0.0 mm
03:45 PM 53.3°F11.8°C 37.6°F3.1°C 55% 4.0 mph SE6.4 kmh SE 12.0 mph19.3 kmh 29.65 in1004.1 mb 0.00 in0.0 mm 0.00 in/hr0.0 mm/hr 0.00 in0.0 mm
03:40 PM 53.4°F11.9°C 37.7°F3.2°C 55% 8.0 mph SW12.9 kmh SW 18.0 mph29.0 kmh 29.65 in1004.1 mb 0.00 in0.0 mm 0.00 in/hr0.0 mm/hr 0.00 in0.0 mm
03:35 PM 53.6°F12.0°C 37.8°F3.2°C 55% 5.0 mph S8.0 kmh S 14.0 mph22.5 kmh 29.65 in1004.1 mb 0.00 in0.0 mm 0.00 in/hr0.0 mm/hr 0.00 in0.0 mm
03:30 PM 53.7°F12.1°C 37.9°F3.3°C 55% 7.0 mph S11.3 kmh S 12.0 mph19.3 kmh 29.65 in1004.1 mb 0.00 in0.0 mm 0.00 in/hr0.0 mm/hr 0.00 in0.0 mm
03:25 PM 53.8°F12.1°C 38.0°F3.3°C 55% 10.0 mph SW16.1 kmh SW 10.0 mph16.1 kmh 29.65 in1004.1 mb 0.00 in0.0 mm 0.00 in/hr0.0 mm/hr 0.00 in0.0 mm
03:20 PM 53.9°F12.2°C 38.1°F3.4°C 55% 3.0 mph S4.8 kmh S 11.0 mph17.7 kmh 29.65 in1004.1 mb 0.00 in0.0 mm 0.00 in/hr0.0 mm/hr 0.00 in0.0 mm
03:15 PM 53.9°F12.2°C 37.7°F3.2°C 54% 3.0 mph SW4.8 kmh SW 11.0 mph17.7 kmh 29.65 in1004.1 mb 0.00 in0.0 mm 0.00 in/hr0.0 mm/hr 0.00 in0.0 mm
03:10 PM 54.0°F12.2°C 37.8°F3.2°C 54% 3.0 mph SW4.8 kmh SW 11.0 mph17.7 kmh 29.65 in1004.1 mb 0.00 in0.0 mm 0.00 in/hr0.0 mm/hr 0.00 in0.0 mm
03:05 PM 54.0°F12.2°C 37.8°F3.2°C 54% 5.0 mph S8.0 kmh S 11.0 mph17.7 kmh 29.65 in1004.1 mb 0.00 in0.0 mm 0.00 in/hr0.0 mm/hr 0.00 in0.0 mm
03:00 PM 54.1°F12.3°C 37.4°F3.0°C 53% 8.0 mph SSE12.9 kmh SSE 13.0 mph20.9 kmh 29.65 in1004.1 mb 0.00 in0.0 mm 0.00 in/hr0.0 mm/hr 0.00 in0.0 mm
02:55 PM 54.2°F12.3°C 37.5°F3.1°C 53% 5.0 mph SE8.0 kmh SE 13.0 mph20.9 kmh 29.64 in1003.7 mb 0.00 in0.0 mm 0.00 in/hr0.0 mm/hr 0.00 in0.0 mm
02:50 PM 54.2°F12.3°C 37.5°F3.1°C 53% 5.0 mph SSW8.0 kmh SSW 13.0 mph20.9 kmh 29.65 in1004.1 mb 0.00 in0.0 mm 0.00 in/hr0.0 mm/hr 0.00 in0.0 mm
02:45 PM 54.3°F12.4°C 37.6°F3.1°C 53% 8.0 mph S12.9 kmh S 11.0 mph17.7 kmh 29.64 in1003.7 mb 0.00 in0.0 mm 0.00 in/hr0.0 mm/hr 0.00 in0.0 mm
02:40 PM 53.9°F12.2°C 37.7°F3.2°C 54% 6.0 mph WSW9.7 kmh WSW 11.0 mph17.7 kmh 29.64 in1003.7 mb 0.00 in0.0 mm 0.00 in/hr0.0 mm/hr 0.00 in0.0 mm
02:35 PM 53.4°F11.9°C 37.7°F3.2°C 55% 4.0 mph SSW6.4 kmh SSW 10.0 mph16.1 kmh 29.64 in1003.7 mb 0.00 in0.0 mm 0.00 in/hr0.0 mm/hr 0.00 in0.0 mm
02:30 PM 53.1°F11.7°C 37.4°F3.0°C 55% 8.0 mph S12.9 kmh S 14.0 mph22.5 kmh 29.64 in1003.7 mb 0.00 in0.0 mm 0.00 in/hr0.0 mm/hr 0.00 in0.0 mm
02:25 PM 52.7°F11.5°C 37.5°F3.1°C 56% 9.0 mph SW14.5 kmh SW 11.0 mph17.7 kmh 29.64 in1003.7 mb 0.00 in0.0 mm 0.00 in/hr0.0 mm/hr 0.00 in0.0 mm
02:20 PM 52.5°F11.4°C 37.3°F2.9°C 56% 3.0 mph SSE4.8 kmh SSE 13.0 mph20.9 kmh 29.65 in1004.1 mb 0.00 in0.0 mm 0.00 in/hr0.0 mm/hr 0.00 in0.0 mm
02:15 PM 52.5°F11.4°C 37.3°F2.9°C 56% 6.0 mph S9.7 kmh S 13.0 mph20.9 kmh 29.65 in1004.1 mb 0.00 in0.0 mm 0.00 in/hr0.0 mm/hr 0.00 in0.0 mm
02:10 PM 52.4°F11.3°C 37.2°F2.9°C 56% 3.0 mph SSE4.8 kmh SSE 12.0 mph19.3 kmh 29.64 in1003.7 mb 0.00 in0.0 mm 0.00 in/hr0.0 mm/hr 0.00 in0.0 mm
02:05 PM 52.4°F11.3°C 36.7°F2.6°C 55% 6.0 mph SSE9.7 kmh SSE 12.0 mph19.3 kmh 29.64 in1003.7 mb 0.00 in0.0 mm 0.00 in/hr0.0 mm/hr 0.00 in0.0 mm
02:00 PM 52.4°F11.3°C 36.7°F2.6°C 55% 5.0 mph SE8.0 kmh SE 13.0 mph20.9 kmh 29.64 in1003.7 mb 0.00 in0.0 mm 0.00 in/hr0.0 mm/hr 0.00 in0.0 mm
01:55 PM 52.6°F11.4°C 36.9°F2.7°C 55% 6.0 mph S9.7 kmh S 12.0 mph19.3 kmh 29.65 in1004.1 mb 0.00 in0.0 mm 0.00 in/hr0.0 mm/hr 0.00 in0.0 mm
01:50 PM 52.7°F11.5°C 37.0°F2.8°C 55% 3.0 mph S4.8 kmh S 11.0 mph17.7 kmh 29.65 in1004.1 mb 0.00 in0.0 mm 0.00 in/hr0.0 mm/hr 0.00 in0.0 mm
01:45 PM 52.9°F11.6°C 36.7°F2.6°C 54% 4.0 mph SW6.4 kmh SW 10.0 mph16.1 kmh 29.65 in1004.1 mb 0.00 in0.0 mm 0.00 in/hr0.0 mm/hr 0.00 in0.0 mm
01:40 PM 53.2°F11.8°C 36.5°F2.5°C 53% 6.0 mph SE9.7 kmh SE 16.0 mph25.7 kmh 29.65 in1004.1 mb 0.00 in0.0 mm 0.00 in/hr0.0 mm/hr 0.00 in0.0 mm
01:35 PM 53.4°F11.9°C 36.7°F2.6°C 53% 6.0 mph SW9.7 kmh SW 16.0 mph25.7 kmh 29.65 in1004.1 mb 0.00 in0.0 mm 0.00 in/hr0.0 mm/hr 0.00 in0.0 mm
01:30 PM 53.6°F12.0°C 36.9°F2.7°C 53% 4.0 mph S6.4 kmh S 10.0 mph16.1 kmh 29.66 in1004.4 mb 0.00 in0.0 mm 0.00 in/hr0.0 mm/hr 0.00 in0.0 mm
01:25 PM 53.4°F11.9°C 36.7°F2.6°C 53% 1.0 mph S1.6 kmh S 10.0 mph16.1 kmh 29.66 in1004.4 mb 0.00 in0.0 mm 0.00 in/hr0.0 mm/hr 0.00 in0.0 mm
01:20 PM 53.4°F11.9°C 36.2°F2.3°C 52% 9.0 mph SW14.5 kmh SW 14.0 mph22.5 kmh 29.66 in1004.4 mb 0.00 in0.0 mm 0.00 in/hr0.0 mm/hr 0.00 in0.0 mm
01:15 PM 53.5°F11.9°C 36.3°F2.4°C 52% 8.0 mph SW12.9 kmh SW 13.0 mph20.9 kmh 29.66 in1004.4 mb 0.00 in0.0 mm 0.00 in/hr0.0 mm/hr 0.00 in0.0 mm
01:10 PM 53.6°F12.0°C 36.9°F2.7°C 53% 7.0 mph SSW11.3 kmh SSW 12.0 mph19.3 kmh 29.66 in1004.4 mb 0.00 in0.0 mm 0.00 in/hr0.0 mm/hr 0.00 in0.0 mm
01:05 PM 53.6°F12.0°C 36.9°F2.7°C 53% 4.0 mph SW6.4 kmh SW 12.0 mph19.3 kmh 29.66 in1004.4 mb 0.00 in0.0 mm 0.00 in/hr0.0 mm/hr 0.00 in0.0 mm
01:00 PM 53.7°F12.1°C 36.5°F2.5°C 52% 7.0 mph SSE11.3 kmh SSE 14.0 mph22.5 kmh 29.67 in1004.7 mb 0.00 in0.0 mm 0.00 in/hr0.0 mm/hr 0.00 in0.0 mm
12:55 PM 53.8°F12.1°C 36.6°F2.6°C 52% 12.0 mph SW19.3 kmh SW 14.0 mph22.5 kmh 29.67 in1004.7 mb 0.00 in0.0 mm 0.00 in/hr0.0 mm/hr 0.00 in0.0 mm
12:50 PM 54.1°F12.3°C 36.9°F2.7°C 52% 13.0 mph SW20.9 kmh SW 16.0 mph25.7 kmh 29.67 in1004.7 mb 0.00 in0.0 mm 0.00 in/hr0.0 mm/hr 0.00 in0.0 mm
12:45 PM 54.1°F12.3°C 37.4°F3.0°C 53% 7.0 mph SSE11.3 kmh SSE 13.0 mph20.9 kmh 29.67 in1004.7 mb 0.00 in0.0 mm 0.00 in/hr0.0 mm/hr 0.00 in0.0 mm
12:40 PM 54.1°F12.3°C 37.8°F3.2°C 54% 3.0 mph S4.8 kmh S 9.0 mph14.5 kmh 29.67 in1004.7 mb 0.00 in0.0 mm 0.00 in/hr0.0 mm/hr 0.00 in0.0 mm
12:35 PM 53.9°F12.2°C 38.1°F3.4°C 55% 5.0 mph S8.0 kmh S 8.0 mph12.9 kmh 29.68 in1005.1 mb 0.00 in0.0 mm 0.00 in/hr0.0 mm/hr 0.00 in0.0 mm
12:30 PM 53.7°F12.1°C 37.5°F3.1°C 54% 8.0 mph WSW12.9 kmh WSW 17.0 mph27.4 kmh 29.69 in1005.4 mb 0.00 in0.0 mm 0.00 in/hr0.0 mm/hr 0.00 in0.0 mm
12:25 PM 53.8°F12.1°C 37.1°F2.8°C 53% 14.0 mph SSW22.5 kmh SSW 17.0 mph27.4 kmh 29.69 in1005.4 mb 0.00 in0.0 mm 0.00 in/hr0.0 mm/hr 0.00 in0.0 mm
12:20 PM 53.9°F12.2°C 37.7°F3.2°C 54% 18.0 mph SW29.0 kmh SW 18.0 mph29.0 kmh 29.69 in1005.4 mb 0.00 in0.0 mm 0.00 in/hr0.0 mm/hr 0.00 in0.0 mm
12:15 PM 53.6°F12.0°C 36.9°F2.7°C 53% 4.0 mph S6.4 kmh S 15.0 mph24.1 kmh 29.70 in1005.8 mb 0.00 in0.0 mm 0.00 in/hr0.0 mm/hr 0.00 in0.0 mm
12:10 PM 53.5°F11.9°C 37.3°F2.9°C 54% 10.0 mph SW16.1 kmh SW 22.0 mph35.4 kmh 29.70 in1005.8 mb 0.00 in0.0 mm 0.00 in/hr0.0 mm/hr 0.00 in0.0 mm
12:05 PM 53.4°F11.9°C 37.7°F3.2°C 55% 5.0 mph SE8.0 kmh SE 14.0 mph22.5 kmh 29.70 in1005.8 mb 0.00 in0.0 mm 0.00 in/hr0.0 mm/hr 0.00 in0.0 mm
12:00 PM 53.0°F11.7°C 36.8°F2.7°C 54% 3.0 mph SW4.8 kmh SW 16.0 mph25.7 kmh 29.71 in1006.1 mb 0.00 in0.0 mm 0.00 in/hr0.0 mm/hr 0.00 in0.0 mm
11:55 AM 53.1°F11.7°C 37.4°F3.0°C 55% 10.0 mph S16.1 kmh S 16.0 mph25.7 kmh 29.71 in1006.1 mb 0.00 in0.0 mm 0.00 in/hr0.0 mm/hr 0.00 in0.0 mm
11:50 AM 52.9°F11.6°C 37.2°F2.9°C 55% 10.0 mph S16.1 kmh S 22.0 mph35.4 kmh 29.71 in1006.1 mb 0.00 in0.0 mm 0.00 in/hr0.0 mm/hr 0.00 in0.0 mm
11:45 AM 52.5°F11.4°C 38.6°F3.7°C 59% 7.0 mph S11.3 kmh S 22.0 mph35.4 kmh 29.72 in1006.4 mb 0.00 in0.0 mm 0.00 in/hr0.0 mm/hr 0.00 in0.0 mm
11:40 AM 51.8°F11.0°C 37.5°F3.1°C 58% 8.0 mph S12.9 kmh S 17.0 mph27.4 kmh 29.72 in1006.4 mb 0.00 in0.0 mm 0.00 in/hr0.0 mm/hr 0.00 in0.0 mm
11:35 AM 52.0°F11.1°C 38.6°F3.7°C 60% 11.0 mph S17.7 kmh S 17.0 mph27.4 kmh 29.73 in1006.8 mb 0.00 in0.0 mm 0.00 in/hr0.0 mm/hr 0.00 in0.0 mm
11:30 AM 51.7°F10.9°C 38.7°F3.7°C 61% 6.0 mph SSW9.7 kmh SSW 13.0 mph20.9 kmh 29.73 in1006.8 mb 0.00 in0.0 mm 0.00 in/hr0.0 mm/hr 0.00 in0.0 mm
11:25 AM 51.1°F10.6°C 38.1°F3.4°C 61% 5.0 mph SE8.0 kmh SE 13.0 mph20.9 kmh 29.74 in1007.1 mb 0.00 in0.0 mm 0.00 in/hr0.0 mm/hr 0.00 in0.0 mm
11:20 AM 50.8°F10.4°C 37.9°F3.3°C 61% 4.0 mph S6.4 kmh S 16.0 mph25.7 kmh 29.74 in1007.1 mb 0.00 in0.0 mm 0.00 in/hr0.0 mm/hr 0.00 in0.0 mm
11:15 AM 50.8°F10.4°C 37.9°F3.3°C 61% 7.0 mph SSE11.3 kmh SSE 14.0 mph22.5 kmh 29.74 in1007.1 mb 0.00 in0.0 mm 0.00 in/hr0.0 mm/hr 0.00 in0.0 mm
11:10 AM 50.6°F10.3°C 38.1°F3.4°C 62% 6.0 mph SSW9.7 kmh SSW 18.0 mph29.0 kmh 29.74 in1007.1 mb 0.00 in0.0 mm 0.00 in/hr0.0 mm/hr 0.00 in0.0 mm
11:05 AM 50.3°F10.2°C 37.4°F3.0°C 61% 8.0 mph SE12.9 kmh SE 18.0 mph29.0 kmh 29.75 in1007.5 mb 0.00 in0.0 mm 0.00 in/hr0.0 mm/hr 0.00 in0.0 mm
11:00 AM 50.2°F10.1°C 37.7°F3.2°C 62% 9.0 mph S14.5 kmh S 15.0 mph24.1 kmh 29.76 in1007.8 mb 0.00 in0.0 mm 0.00 in/hr0.0 mm/hr 0.00 in0.0 mm
10:55 AM 50.0°F10.0°C 37.9°F3.3°C 63% 11.0 mph S17.7 kmh S 14.0 mph22.5 kmh 29.76 in1007.8 mb 0.00 in0.0 mm 0.00 in/hr0.0 mm/hr 0.00 in0.0 mm
10:50 AM 49.6°F9.8°C 37.5°F3.1°C 63% 8.0 mph S12.9 kmh S 14.0 mph22.5 kmh 29.76 in1007.8 mb 0.00 in0.0 mm 0.00 in/hr0.0 mm/hr 0.00 in0.0 mm
10:45 AM 49.2°F9.6°C 37.6°F3.1°C 64% 8.0 mph SSW12.9 kmh SSW 12.0 mph19.3 kmh 29.76 in1007.8 mb 0.00 in0.0 mm 0.00 in/hr0.0 mm/hr 0.00 in0.0 mm
10:40 AM 49.0°F9.4°C 37.4°F3.0°C 64% 13.0 mph SE20.9 kmh SE 17.0 mph27.4 kmh 29.76 in1007.8 mb 0.00 in0.0 mm 0.00 in/hr0.0 mm/hr 0.00 in0.0 mm
10:35 AM 48.8°F9.3°C 37.6°F3.1°C 65% 5.0 mph SE8.0 kmh SE 14.0 mph22.5 kmh 29.77 in1008.1 mb 0.00 in0.0 mm 0.00 in/hr0.0 mm/hr 0.00 in0.0 mm
10:30 AM 48.4°F9.1°C 37.6°F3.1°C 66% 6.0 mph S9.7 kmh S 12.0 mph19.3 kmh 29.78 in1008.5 mb 0.00 in0.0 mm 0.00 in/hr0.0 mm/hr 0.00 in0.0 mm
10:25 AM 48.0°F8.9°C 37.2°F2.9°C 66% 11.0 mph SW17.7 kmh SW 12.0 mph19.3 kmh 29.78 in1008.5 mb 0.00 in0.0 mm 0.00 in/hr0.0 mm/hr 0.00 in0.0 mm
10:20 AM 47.7°F8.7°C 36.9°F2.7°C 66% 3.0 mph S4.8 kmh S 15.0 mph24.1 kmh 29.79 in1008.8 mb 0.00 in0.0 mm 0.00 in/hr0.0 mm/hr 0.00 in0.0 mm
10:15 AM 47.0°F8.3°C 36.6°F2.6°C 67% 6.0 mph S9.7 kmh S 15.0 mph24.1 kmh 29.78 in1008.5 mb 0.00 in0.0 mm 0.00 in/hr0.0 mm/hr 0.00 in0.0 mm
10:10 AM 46.5°F8.1°C 36.2°F2.3°C 67% 7.0 mph SW11.3 kmh SW 17.0 mph27.4 kmh 29.78 in1008.5 mb 0.00 in0.0 mm 0.00 in/hr0.0 mm/hr 0.00 in0.0 mm
10:05 AM 46.0°F7.8°C 36.1°F2.3°C 68% 8.0 mph SSE12.9 kmh SSE 17.0 mph27.4 kmh 29.78 in1008.5 mb 0.00 in0.0 mm 0.00 in/hr0.0 mm/hr 0.00 in0.0 mm
10:00 AM 45.5°F7.5°C 35.9°F2.2°C 69% 6.0 mph SE9.7 kmh SE 13.0 mph20.9 kmh 29.78 in1008.5 mb 0.00 in0.0 mm 0.00 in/hr0.0 mm/hr 0.00 in0.0 mm
09:55 AM 45.2°F7.3°C 35.7°F2.1°C 69% 5.0 mph S8.0 kmh S 13.0 mph20.9 kmh 29.78 in1008.5 mb 0.00 in0.0 mm 0.00 in/hr0.0 mm/hr 0.00 in0.0 mm
09:50 AM 44.9°F7.2°C 35.7°F2.1°C 70% 4.0 mph SE6.4 kmh SE 13.0 mph20.9 kmh 29.79 in1008.8 mb 0.00 in0.0 mm 0.00 in/hr0.0 mm/hr 0.00 in0.0 mm
09:45 AM 44.8°F7.1°C 35.6°F2.0°C 70% 7.0 mph SSE11.3 kmh SSE 11.0 mph17.7 kmh 29.79 in1008.8 mb 0.00 in0.0 mm 0.00 in/hr0.0 mm/hr 0.00 in0.0 mm
09:40 AM 44.6°F7.0°C 35.4°F1.9°C 70% 4.0 mph S6.4 kmh S 13.0 mph20.9 kmh 29.80 in1009.1 mb 0.00 in0.0 mm 0.00 in/hr0.0 mm/hr 0.00 in0.0 mm
09:35 AM 44.5°F6.9°C 35.3°F1.8°C 70% 5.0 mph SSE8.0 kmh SSE 13.0 mph20.9 kmh 29.81 in1009.5 mb 0.00 in0.0 mm 0.00 in/hr0.0 mm/hr 0.00 in0.0 mm
09:30 AM 44.6°F7.0°C 35.4°F1.9°C 70% 4.0 mph S6.4 kmh S 12.0 mph19.3 kmh 29.81 in1009.5 mb 0.00 in0.0 mm 0.00 in/hr0.0 mm/hr 0.00 in0.0 mm
09:25 AM 44.7°F7.1°C 35.2°F1.8°C 69% 7.0 mph S11.3 kmh S 9.0 mph14.5 kmh 29.81 in1009.5 mb 0.00 in0.0 mm 0.00 in/hr0.0 mm/hr 0.00 in0.0 mm
09:20 AM 44.8°F7.1°C 35.3°F1.8°C 69% 5.0 mph SSE8.0 kmh SSE 15.0 mph24.1 kmh 29.81 in1009.5 mb 0.00 in0.0 mm 0.00 in/hr0.0 mm/hr 0.00 in0.0 mm
09:15 AM 44.9°F7.2°C 35.0°F1.7°C 68% 6.0 mph S9.7 kmh S 15.0 mph24.1 kmh 29.81 in1009.5 mb 0.00 in0.0 mm 0.00 in/hr0.0 mm/hr 0.00 in0.0 mm
09:10 AM 44.9°F7.2°C 35.4°F1.9°C 69% 3.0 mph SSW4.8 kmh SSW 14.0 mph22.5 kmh 29.81 in1009.5 mb 0.00 in0.0 mm 0.00 in/hr0.0 mm/hr 0.00 in0.0 mm
09:05 AM 44.7°F7.1°C 34.8°F1.6°C 68% 4.0 mph SSE6.4 kmh SSE 14.0 mph22.5 kmh 29.81 in1009.5 mb 0.00 in0.0 mm 0.00 in/hr0.0 mm/hr 0.00 in0.0 mm
09:00 AM 44.8°F7.1°C 34.9°F1.6°C 68% 6.0 mph S9.7 kmh S 15.0 mph24.1 kmh 29.81 in1009.5 mb 0.00 in0.0 mm 0.00 in/hr0.0 mm/hr 0.00 in0.0 mm
08:55 AM 45.0°F7.2°C 35.1°F1.7°C 68% 7.0 mph SW11.3 kmh SW 7.0 mph11.3 kmh 29.82 in1009.8 mb 0.00 in0.0 mm 0.00 in/hr0.0 mm/hr 0.00 in0.0 mm
08:50 AM 44.9°F7.2°C 35.4°F1.9°C 69% 5.0 mph SSW8.0 kmh SSW 9.0 mph14.5 kmh 29.81 in1009.5 mb 0.00 in0.0 mm 0.00 in/hr0.0 mm/hr 0.00 in0.0 mm
08:45 AM 44.8°F7.1°C 34.9°F1.6°C 68% 4.0 mph SW6.4 kmh SW 9.0 mph14.5 kmh 29.81 in1009.5 mb 0.00 in0.0 mm 0.00 in/hr0.0 mm/hr 0.00 in0.0 mm
08:40 AM 44.7°F7.1°C 35.2°F1.8°C 69% 4.0 mph SSE6.4 kmh SSE 11.0 mph17.7 kmh 29.82 in1009.8 mb 0.00 in0.0 mm 0.00 in/hr0.0 mm/hr 0.00 in0.0 mm
08:35 AM 44.2°F6.8°C 35.1°F1.7°C 70% 5.0 mph S8.0 kmh S 11.0 mph17.7 kmh 29.82 in1009.8 mb 0.00 in0.0 mm 0.00 in/hr0.0 mm/hr 0.00 in0.0 mm
08:30 AM 43.7°F6.5°C 34.6°F1.4°C 70% 7.0 mph SSW11.3 kmh SSW 10.0 mph16.1 kmh 29.82 in1009.8 mb 0.00 in0.0 mm 0.00 in/hr0.0 mm/hr 0.00 in0.0 mm
08:25 AM 43.5°F6.4°C 34.4°F1.3°C 70% 7.0 mph S11.3 kmh S 8.0 mph12.9 kmh 29.82 in1009.8 mb 0.00 in0.0 mm 0.00 in/hr0.0 mm/hr 0.00 in0.0 mm
08:20 AM 43.5°F6.4°C 34.7°F1.5°C 71% 4.0 mph SE6.4 kmh SE 11.0 mph17.7 kmh 29.82 in1009.8 mb 0.00 in0.0 mm 0.00 in/hr0.0 mm/hr 0.00 in0.0 mm
08:15 AM 43.3°F6.3°C 34.5°F1.4°C 71% 4.0 mph SSW6.4 kmh SSW 5.0 mph8.0 kmh 29.82 in1009.8 mb 0.00 in0.0 mm 0.00 in/hr0.0 mm/hr 0.00 in0.0 mm
08:10 AM 43.3°F6.3°C 34.5°F1.4°C 71% 4.0 mph SE6.4 kmh SE 12.0 mph19.3 kmh 29.82 in1009.8 mb 0.00 in0.0 mm 0.00 in/hr0.0 mm/hr 0.00 in0.0 mm
08:05 AM 43.2°F6.2°C 34.5°F1.4°C 71% 7.0 mph SSW11.3 kmh SSW 12.0 mph19.3 kmh 29.82 in1009.8 mb 0.00 in0.0 mm 0.00 in/hr0.0 mm/hr 0.00 in0.0 mm
08:00 AM 43.0°F6.1°C 34.3°F1.3°C 71% 3.0 mph S4.8 kmh S 11.0 mph17.7 kmh 29.82 in1009.8 mb 0.00 in0.0 mm 0.00 in/hr0.0 mm/hr 0.00 in0.0 mm
07:55 AM 42.6°F5.9°C 34.2°F1.2°C 72% 5.0 mph S8.0 kmh S 11.0 mph17.7 kmh 29.82 in1009.8 mb 0.00 in0.0 mm 0.00 in/hr0.0 mm/hr 0.00 in0.0 mm
07:50 AM 42.0°F5.6°C 34.3°F1.3°C 74% 6.0 mph S9.7 kmh S 9.0 mph14.5 kmh 29.81 in1009.5 mb 0.00 in0.0 mm 0.00 in/hr0.0 mm/hr 0.00 in0.0 mm
07:45 AM 41.4°F5.2°C 34.1°F1.2°C 75% 2.0 mph S3.2 kmh S 6.0 mph9.7 kmh 29.82 in1009.8 mb 0.00 in0.0 mm 0.00 in/hr0.0 mm/hr 0.00 in0.0 mm
07:40 AM 41.2°F5.1°C 33.9°F1.1°C 75% 3.0 mph SE4.8 kmh SE 10.0 mph16.1 kmh 29.82 in1009.8 mb 0.00 in0.0 mm 0.00 in/hr0.0 mm/hr 0.00 in0.0 mm
07:35 AM 41.1°F5.1°C 33.8°F1.0°C 75% 2.0 mph SSW3.2 kmh SSW 10.0 mph16.1 kmh 29.82 in1009.8 mb 0.00 in0.0 mm 0.00 in/hr0.0 mm/hr 0.00 in0.0 mm
07:30 AM 40.8°F4.9°C 33.8°F1.0°C 76% 4.0 mph SSE6.4 kmh SSE 7.0 mph11.3 kmh 29.82 in1009.8 mb 0.00 in0.0 mm 0.00 in/hr0.0 mm/hr 0.00 in0.0 mm
07:25 AM 40.5°F4.7°C 33.9°F1.1°C 77% 2.0 mph S3.2 kmh S 7.0 mph11.3 kmh 29.82 in1009.8 mb 0.00 in0.0 mm 0.00 in/hr0.0 mm/hr 0.00 in0.0 mm
07:20 AM 40.2°F4.6°C 33.6°F0.9°C 77% 4.0 mph SSE6.4 kmh SSE 7.0 mph11.3 kmh 29.82 in1009.8 mb 0.00 in0.0 mm 0.00 in/hr0.0 mm/hr 0.00 in0.0 mm
07:15 AM 40.1°F4.5°C 33.5°F0.8°C 77% 3.0 mph SE4.8 kmh SE 7.0 mph11.3 kmh 29.82 in1009.8 mb 0.00 in0.0 mm 0.00 in/hr0.0 mm/hr 0.00 in0.0 mm
07:10 AM 39.9°F4.4°C 33.6°F0.9°C 78% 4.0 mph S6.4 kmh S 6.0 mph9.7 kmh 29.81 in1009.5 mb 0.00 in0.0 mm 0.00 in/hr0.0 mm/hr 0.00 in0.0 mm
07:05 AM 39.2°F4.0°C 32.9°F0.5°C 78% 6.0 mph S9.7 kmh S 6.0 mph9.7 kmh 29.81 in1009.5 mb 0.00 in0.0 mm 0.00 in/hr0.0 mm/hr 0.00 in0.0 mm
07:00 AM 39.2°F4.0°C 32.9°F0.5°C 78% 6.0 mph S9.7 kmh S 6.0 mph9.7 kmh 29.82 in1009.8 mb 0.00 in0.0 mm 0.00 in/hr0.0 mm/hr 0.00 in0.0 mm
06:55 AM 39.2°F4.0°C 32.9°F0.5°C 78% 6.0 mph S9.7 kmh S 6.0 mph9.7 kmh 29.82 in1009.8 mb 0.00 in0.0 mm 0.00 in/hr0.0 mm/hr 0.00 in0.0 mm
06:50 AM 39.2°F4.0°C 32.9°F0.5°C 78% 6.0 mph S9.7 kmh S 6.0 mph9.7 kmh 29.82 in1009.8 mb 0.00 in0.0 mm 0.00 in/hr0.0 mm/hr 0.00 in0.0 mm
06:45 AM 39.2°F4.0°C 32.9°F0.5°C 78% 6.0 mph S9.7 kmh S 6.0 mph9.7 kmh 29.83 in1010.2 mb 0.00 in0.0 mm 0.00 in/hr0.0 mm/hr 0.00 in0.0 mm
06:40 AM 39.2°F4.0°C 32.9°F0.5°C 78% 6.0 mph S9.7 kmh S 6.0 mph9.7 kmh 29.84 in1010.5 mb 0.00 in0.0 mm 0.00 in/hr0.0 mm/hr 0.00 in0.0 mm
06:35 AM 39.2°F4.0°C 32.9°F0.5°C 78% 6.0 mph S9.7 kmh S 6.0 mph9.7 kmh 29.84 in1010.5 mb 0.00 in0.0 mm 0.00 in/hr0.0 mm/hr 0.00 in0.0 mm
06:30 AM 39.2°F4.0°C 32.9°F0.5°C 78% 6.0 mph S9.7 kmh S 6.0 mph9.7 kmh 29.84 in1010.5 mb 0.00 in0.0 mm 0.00 in/hr0.0 mm/hr 0.00 in0.0 mm
06:25 AM 39.2°F4.0°C 32.9°F0.5°C 78% 6.0 mph S9.7 kmh S 6.0 mph9.7 kmh 29.84 in1010.5 mb 0.00 in0.0 mm 0.00 in/hr0.0 mm/hr 0.00 in0.0 mm
06:20 AM 39.2°F4.0°C 32.9°F0.5°C 78% 6.0 mph S9.7 kmh S 6.0 mph9.7 kmh 29.84 in1010.5 mb 0.00 in0.0 mm 0.00 in/hr0.0 mm/hr 0.00 in0.0 mm
06:15 AM 39.2°F4.0°C 32.9°F0.5°C 78% 6.0 mph S9.7 kmh S 6.0 mph9.7 kmh 29.83 in1010.2 mb 0.00 in0.0 mm 0.00 in/hr0.0 mm/hr 0.00 in0.0 mm
06:10 AM 39.2°F4.0°C 32.9°F0.5°C 78% 6.0 mph S9.7 kmh S 6.0 mph9.7 kmh 29.83 in1010.2 mb 0.00 in0.0 mm 0.00 in/hr0.0 mm/hr 0.00 in0.0 mm
06:05 AM 39.2°F4.0°C 32.9°F0.5°C 78% 6.0 mph S9.7 kmh S 6.0 mph9.7 kmh 29.83 in1010.2 mb 0.00 in0.0 mm 0.00 in/hr0.0 mm/hr 0.00 in0.0 mm
06:00 AM 39.2°F4.0°C 32.9°F0.5°C 78% 6.0 mph S9.7 kmh S 6.0 mph9.7 kmh 29.83 in1010.2 mb 0.00 in0.0 mm 0.00 in/hr0.0 mm/hr 0.00 in0.0 mm
05:55 AM 39.2°F4.0°C 32.9°F0.5°C 78% 6.0 mph S9.7 kmh S 6.0 mph9.7 kmh 29.83 in1010.2 mb 0.00 in0.0 mm 0.00 in/hr0.0 mm/hr 0.00 in0.0 mm
05:50 AM 39.2°F4.0°C 32.9°F0.5°C 78% 6.0 mph S9.7 kmh S 6.0 mph9.7 kmh 29.82 in1009.8 mb 0.00 in0.0 mm 0.00 in/hr0.0 mm/hr 0.00 in0.0 mm
05:45 AM 39.2°F4.0°C 32.9°F0.5°C 78% 6.0 mph S9.7 kmh S 6.0 mph9.7 kmh 29.82 in1009.8 mb 0.00 in0.0 mm 0.00 in/hr0.0 mm/hr 0.00 in0.0 mm
05:40 AM 39.2°F4.0°C 32.9°F0.5°C 78% 6.0 mph S9.7 kmh S 6.0 mph9.7 kmh 29.82 in1009.8 mb 0.00 in0.0 mm 0.00 in/hr0.0 mm/hr 0.00 in0.0 mm
05:35 AM 39.2°F4.0°C 32.9°F0.5°C 78% 6.0 mph S9.7 kmh S 6.0 mph9.7 kmh 29.83 in1010.2 mb 0.00 in0.0 mm 0.00 in/hr0.0 mm/hr 0.00 in0.0 mm
05:30 AM 39.2°F4.0°C 32.9°F0.5°C 78% 6.0 mph S9.7 kmh S 6.0 mph9.7 kmh 29.83 in1010.2 mb 0.00 in0.0 mm 0.00 in/hr0.0 mm/hr 0.00 in0.0 mm
05:25 AM 39.2°F4.0°C 32.9°F0.5°C 78% 6.0 mph S9.7 kmh S 6.0 mph9.7 kmh 29.83 in1010.2 mb 0.00 in0.0 mm 0.00 in/hr0.0 mm/hr 0.00 in0.0 mm
05:20 AM 39.2°F4.0°C 32.9°F0.5°C 78% 6.0 mph S9.7 kmh S 6.0 mph9.7 kmh 29.84 in1010.5 mb 0.00 in0.0 mm 0.00 in/hr0.0 mm/hr 0.00 in0.0 mm
05:15 AM 39.2°F4.0°C 32.9°F0.5°C 78% 6.0 mph S9.7 kmh S 6.0 mph9.7 kmh 29.84 in1010.5 mb 0.00 in0.0 mm 0.00 in/hr0.0 mm/hr 0.00 in0.0 mm
05:10 AM 39.2°F4.0°C 32.9°F0.5°C 78% 6.0 mph S9.7 kmh S 6.0 mph9.7 kmh 29.84 in1010.5 mb 0.00 in0.0 mm 0.00 in/hr0.0 mm/hr 0.00 in0.0 mm
05:05 AM 39.2°F4.0°C 32.9°F0.5°C 78% 6.0 mph S9.7 kmh S 6.0 mph9.7 kmh 29.84 in1010.5 mb 0.00 in0.0 mm 0.00 in/hr0.0 mm/hr 0.00 in0.0 mm
05:00 AM 39.2°F4.0°C 32.9°F0.5°C 78% 6.0 mph S9.7 kmh S 6.0 mph9.7 kmh 29.84 in1010.5 mb 0.00 in0.0 mm 0.00 in/hr0.0 mm/hr 0.00 in0.0 mm
04:55 AM 39.2°F4.0°C 32.9°F0.5°C 78% 6.0 mph S9.7 kmh S 6.0 mph9.7 kmh 29.85 in1010.8 mb 0.00 in0.0 mm 0.00 in/hr0.0 mm/hr 0.00 in0.0 mm
04:50 AM 39.2°F4.0°C 32.9°F0.5°C 78% 6.0 mph S9.7 kmh S 6.0 mph9.7 kmh 29.85 in1010.8 mb 0.00 in0.0 mm 0.00 in/hr0.0 mm/hr 0.00 in0.0 mm
04:45 AM 39.2°F4.0°C 32.9°F0.5°C 78% 6.0 mph S9.7 kmh S 6.0 mph9.7 kmh 29.85 in1010.8 mb 0.00 in0.0 mm 0.00 in/hr0.0 mm/hr 0.00 in0.0 mm
04:40 AM 39.2°F4.0°C 32.9°F0.5°C 78% 6.0 mph S9.7 kmh S 6.0 mph9.7 kmh 29.85 in1010.8 mb 0.00 in0.0 mm 0.00 in/hr0.0 mm/hr 0.00 in0.0 mm
04:35 AM 39.2°F4.0°C 32.9°F0.5°C 78% 6.0 mph S9.7 kmh S 6.0 mph9.7 kmh 29.86 in1011.2 mb 0.00 in0.0 mm 0.00 in/hr0.0 mm/hr 0.00 in0.0 mm
04:30 AM 39.2°F4.0°C 32.9°F0.5°C 78% 6.0 mph S9.7 kmh S 6.0 mph9.7 kmh 29.86 in1011.2 mb 0.00 in0.0 mm 0.00 in/hr0.0 mm/hr 0.00 in0.0 mm
04:25 AM 39.2°F4.0°C 32.9°F0.5°C 78% 6.0 mph S9.7 kmh S 6.0 mph9.7 kmh 29.87 in1011.5 mb 0.00 in0.0 mm 0.00 in/hr0.0 mm/hr 0.00 in0.0 mm
04:20 AM 39.2°F4.0°C 32.9°F0.5°C 78% 6.0 mph S9.7 kmh S 11.0 mph17.7 kmh 29.87 in1011.5 mb 0.00 in0.0 mm 0.00 in/hr0.0 mm/hr 0.00 in0.0 mm
04:15 AM 39.2°F4.0°C 32.9°F0.5°C 78% 6.0 mph S9.7 kmh S 11.0 mph17.7 kmh 29.87 in1011.5 mb 0.00 in0.0 mm 0.00 in/hr0.0 mm/hr 0.00 in0.0 mm
04:10 AM 38.7°F3.7°C 32.4°F0.2°C 78% 2.0 mph S3.2 kmh S 9.0 mph14.5 kmh 29.88 in1011.9 mb 0.00 in0.0 mm 0.00 in/hr0.0 mm/hr 0.00 in0.0 mm
04:05 AM 38.7°F3.7°C 32.4°F0.2°C 78% 3.0 mph SSE4.8 kmh SSE 8.0 mph12.9 kmh 29.88 in1011.9 mb 0.00 in0.0 mm 0.00 in/hr0.0 mm/hr 0.00 in0.0 mm
04:00 AM 38.8°F3.8°C 32.5°F0.3°C 78% 3.0 mph SSE4.8 kmh SSE 10.0 mph16.1 kmh 29.88 in1011.9 mb 0.00 in0.0 mm 0.00 in/hr0.0 mm/hr 0.00 in0.0 mm
03:55 AM 38.9°F3.8°C 32.6°F0.3°C 78% 7.0 mph S11.3 kmh S 10.0 mph16.1 kmh 29.88 in1011.9 mb 0.00 in0.0 mm 0.00 in/hr0.0 mm/hr 0.00 in0.0 mm
03:50 AM 38.8°F3.8°C 32.5°F0.3°C 78% 3.0 mph S4.8 kmh S 10.0 mph16.1 kmh 29.88 in1011.9 mb 0.00 in0.0 mm 0.00 in/hr0.0 mm/hr 0.00 in0.0 mm
03:45 AM 38.8°F3.8°C 32.5°F0.3°C 78% 3.0 mph SSE4.8 kmh SSE 8.0 mph12.9 kmh 29.88 in1011.9 mb 0.00 in0.0 mm 0.00 in/hr0.0 mm/hr 0.00 in0.0 mm
03:40 AM 38.8°F3.8°C 32.2°F0.1°C 77% 5.0 mph SE8.0 kmh SE 9.0 mph14.5 kmh 29.88 in1011.9 mb 0.00 in0.0 mm 0.00 in/hr0.0 mm/hr 0.00 in0.0 mm
03:35 AM 38.7°F3.7°C 32.1°F0.1°C 77% 3.0 mph SW4.8 kmh SW 9.0 mph14.5 kmh 29.88 in1011.9 mb 0.00 in0.0 mm 0.00 in/hr0.0 mm/hr 0.00 in0.0 mm
03:30 AM 38.7°F3.7°C 32.1°F0.1°C 77% 5.0 mph SSW8.0 kmh SSW 10.0 mph16.1 kmh 29.89 in1012.2 mb 0.00 in0.0 mm 0.00 in/hr0.0 mm/hr 0.00 in0.0 mm
03:25 AM 38.7°F3.7°C 32.1°F0.1°C 77% 5.0 mph S8.0 kmh S 10.0 mph16.1 kmh 29.89 in1012.2 mb 0.00 in0.0 mm 0.00 in/hr0.0 mm/hr 0.00 in0.0 mm
03:20 AM 38.7°F3.7°C 32.1°F0.1°C 77% 4.0 mph SE6.4 kmh SE 10.0 mph16.1 kmh 29.89 in1012.2 mb 0.00 in0.0 mm 0.00 in/hr0.0 mm/hr 0.00 in0.0 mm
03:15 AM 38.7°F3.7°C 32.1°F0.1°C 77% 4.0 mph S6.4 kmh S 10.0 mph16.1 kmh 29.89 in1012.2 mb 0.00 in0.0 mm 0.00 in/hr0.0 mm/hr 0.00 in0.0 mm
03:10 AM 38.8°F3.8°C 32.2°F0.1°C 77% 3.0 mph SE4.8 kmh SE 10.0 mph16.1 kmh 29.89 in1012.2 mb 0.00 in0.0 mm 0.00 in/hr0.0 mm/hr 0.00 in0.0 mm
03:05 AM 38.8°F3.8°C 32.2°F0.1°C 77% 6.0 mph SSE9.7 kmh SSE 9.0 mph14.5 kmh 29.89 in1012.2 mb 0.00 in0.0 mm 0.00 in/hr0.0 mm/hr 0.00 in0.0 mm
03:00 AM 38.8°F3.8°C 32.2°F0.1°C 77% 5.0 mph SE8.0 kmh SE 12.0 mph19.3 kmh 29.89 in1012.2 mb 0.00 in0.0 mm 0.00 in/hr0.0 mm/hr 0.00 in0.0 mm
02:55 AM 38.7°F3.7°C 32.1°F0.1°C 77% 4.0 mph SW6.4 kmh SW 9.0 mph14.5 kmh 29.89 in1012.2 mb 0.00 in0.0 mm 0.00 in/hr0.0 mm/hr 0.00 in0.0 mm
02:50 AM 38.8°F3.8°C 32.2°F0.1°C 77% 3.0 mph SSE4.8 kmh SSE 11.0 mph17.7 kmh 29.89 in1012.2 mb 0.00 in0.0 mm 0.00 in/hr0.0 mm/hr 0.00 in0.0 mm
02:45 AM 38.8°F3.8°C 32.2°F0.1°C 77% 3.0 mph S4.8 kmh S 11.0 mph17.7 kmh 29.89 in1012.2 mb 0.00 in0.0 mm 0.00 in/hr0.0 mm/hr 0.00 in0.0 mm
02:40 AM 38.8°F3.8°C 32.2°F0.1°C 77% 3.0 mph S4.8 kmh S 11.0 mph17.7 kmh 29.89 in1012.2 mb 0.00 in0.0 mm 0.00 in/hr0.0 mm/hr 0.00 in0.0 mm
02:35 AM 38.7°F3.7°C 32.4°F0.2°C 78% 5.0 mph SSW8.0 kmh SSW 8.0 mph12.9 kmh 29.89 in1012.2 mb 0.00 in0.0 mm 0.00 in/hr0.0 mm/hr 0.00 in0.0 mm
02:30 AM 38.5°F3.6°C 32.3°F0.2°C 78% 5.0 mph S8.0 kmh S 8.0 mph12.9 kmh 29.89 in1012.2 mb 0.00 in0.0 mm 0.00 in/hr0.0 mm/hr 0.00 in0.0 mm
02:25 AM 38.5°F3.6°C 32.3°F0.2°C 78% 7.0 mph S11.3 kmh S 7.0 mph11.3 kmh 29.89 in1012.2 mb 0.00 in0.0 mm 0.00 in/hr0.0 mm/hr 0.00 in0.0 mm
02:20 AM 38.5°F3.6°C 32.3°F0.2°C 78% 2.0 mph SE3.2 kmh SE 12.0 mph19.3 kmh 29.89 in1012.2 mb 0.00 in0.0 mm 0.00 in/hr0.0 mm/hr 0.00 in0.0 mm
02:15 AM 38.5°F3.6°C 32.3°F0.2°C 78% 3.0 mph S4.8 kmh S 12.0 mph19.3 kmh 29.90 in1012.5 mb 0.00 in0.0 mm 0.00 in/hr0.0 mm/hr 0.00 in0.0 mm
02:10 AM 38.3°F3.5°C 32.4°F0.2°C 79% 5.0 mph S8.0 kmh S 8.0 mph12.9 kmh 29.90 in1012.5 mb 0.00 in0.0 mm 0.00 in/hr0.0 mm/hr 0.00 in0.0 mm
02:05 AM 38.3°F3.5°C 32.4°F0.2°C 79% 4.0 mph SE6.4 kmh SE 8.0 mph12.9 kmh 29.90 in1012.5 mb 0.00 in0.0 mm 0.00 in/hr0.0 mm/hr 0.00 in0.0 mm
02:00 AM 38.2°F3.4°C 32.3°F0.2°C 79% 6.0 mph S9.7 kmh S 9.0 mph14.5 kmh 29.90 in1012.5 mb 0.00 in0.0 mm 0.00 in/hr0.0 mm/hr 0.00 in0.0 mm
01:55 AM 38.2°F3.4°C 32.3°F0.2°C 79% 3.0 mph SSW4.8 kmh SSW 6.0 mph9.7 kmh 29.90 in1012.5 mb 0.00 in0.0 mm 0.00 in/hr0.0 mm/hr 0.00 in0.0 mm
01:50 AM 38.3°F3.5°C 32.4°F0.2°C 79% 2.0 mph SSE3.2 kmh SSE 8.0 mph12.9 kmh 29.90 in1012.5 mb 0.00 in0.0 mm 0.00 in/hr0.0 mm/hr 0.00 in0.0 mm
01:45 AM 38.2°F3.4°C 32.3°F0.2°C 79% 4.0 mph S6.4 kmh S 6.0 mph9.7 kmh 29.90 in1012.5 mb 0.00 in0.0 mm 0.00 in/hr0.0 mm/hr 0.00 in0.0 mm
01:40 AM 38.1°F3.4°C 32.2°F0.1°C 79% 2.0 mph SSE3.2 kmh SSE 7.0 mph11.3 kmh 29.90 in1012.5 mb 0.00 in0.0 mm 0.00 in/hr0.0 mm/hr 0.00 in0.0 mm
01:35 AM 38.1°F3.4°C 32.5°F0.3°C 80% 4.0 mph SSW6.4 kmh SSW 7.0 mph11.3 kmh 29.91 in1012.9 mb 0.00 in0.0 mm 0.00 in/hr0.0 mm/hr 0.00 in0.0 mm
01:30 AM 38.1°F3.4°C 32.5°F0.3°C 80% 2.0 mph SSE3.2 kmh SSE 8.0 mph12.9 kmh 29.91 in1012.9 mb 0.00 in0.0 mm 0.00 in/hr0.0 mm/hr 0.00 in0.0 mm
01:25 AM 38.0°F3.3°C 32.4°F0.2°C 80% 5.0 mph S8.0 kmh S 8.0 mph12.9 kmh 29.91 in1012.9 mb 0.00 in0.0 mm 0.00 in/hr0.0 mm/hr 0.00 in0.0 mm
01:20 AM 38.0°F3.3°C 32.4°F0.2°C 80% 3.0 mph SSE4.8 kmh SSE 8.0 mph12.9 kmh 29.91 in1012.9 mb 0.00 in0.0 mm 0.00 in/hr0.0 mm/hr 0.00 in0.0 mm
01:15 AM 37.9°F3.3°C 32.3°F0.2°C 80% 6.0 mph S9.7 kmh S 8.0 mph12.9 kmh 29.92 in1013.2 mb 0.00 in0.0 mm 0.00 in/hr0.0 mm/hr 0.00 in0.0 mm
01:10 AM 37.8°F3.2°C 32.5°F0.3°C 81% 3.0 mph S4.8 kmh S 6.0 mph9.7 kmh 29.92 in1013.2 mb 0.00 in0.0 mm 0.00 in/hr0.0 mm/hr 0.00 in0.0 mm
01:05 AM 37.7°F3.2°C 32.4°F0.2°C 81% 2.0 mph SSE3.2 kmh SSE 6.0 mph9.7 kmh 29.92 in1013.2 mb 0.00 in0.0 mm 0.00 in/hr0.0 mm/hr 0.00 in0.0 mm
01:00 AM 37.7°F3.2°C 32.4°F0.2°C 81% 2.0 mph S3.2 kmh S 8.0 mph12.9 kmh 29.92 in1013.2 mb 0.00 in0.0 mm 0.00 in/hr0.0 mm/hr 0.00 in0.0 mm
12:55 AM 37.7°F3.2°C 32.4°F0.2°C 81% 4.0 mph SE6.4 kmh SE 7.0 mph11.3 kmh 29.92 in1013.2 mb 0.00 in0.0 mm 0.00 in/hr0.0 mm/hr 0.00 in0.0 mm
12:50 AM 37.8°F3.2°C 32.5°F0.3°C 81% 2.0 mph S3.2 kmh S 7.0 mph11.3 kmh 29.92 in1013.2 mb 0.00 in0.0 mm 0.00 in/hr0.0 mm/hr 0.00 in0.0 mm
12:45 AM 37.9°F3.3°C 32.6°F0.3°C 81% 3.0 mph SSW4.8 kmh SSW 7.0 mph11.3 kmh 29.92 in1013.2 mb 0.00 in0.0 mm 0.00 in/hr0.0 mm/hr 0.00 in0.0 mm
12:40 AM 38.0°F3.3°C 32.4°F0.2°C 80% 1.0 mph SSW1.6 kmh SSW 9.0 mph14.5 kmh 29.92 in1013.2 mb 0.00 in0.0 mm 0.00 in/hr0.0 mm/hr 0.00 in0.0 mm
12:35 AM 38.1°F3.4°C 32.5°F0.3°C 80% 3.0 mph SW4.8 kmh SW 8.0 mph12.9 kmh 29.92 in1013.2 mb 0.00 in0.0 mm 0.00 in/hr0.0 mm/hr 0.00 in0.0 mm
12:30 AM 38.3°F3.5°C 32.7°F0.4°C 80% 7.0 mph S11.3 kmh S 9.0 mph14.5 kmh 29.92 in1013.2 mb 0.00 in0.0 mm 0.00 in/hr0.0 mm/hr 0.00 in0.0 mm
12:25 AM 38.3°F3.5°C 32.7°F0.4°C 80% 2.0 mph S3.2 kmh S 9.0 mph14.5 kmh 29.92 in1013.2 mb 0.00 in0.0 mm 0.00 in/hr0.0 mm/hr 0.00 in0.0 mm
12:20 AM 38.3°F3.5°C 32.7°F0.4°C 80% 3.0 mph SSW4.8 kmh SSW 12.0 mph19.3 kmh 29.92 in1013.2 mb 0.00 in0.0 mm 0.00 in/hr0.0 mm/hr 0.00 in0.0 mm
12:15 AM 38.3°F3.5°C 32.7°F0.4°C 80% 4.0 mph SSW6.4 kmh SSW 11.0 mph17.7 kmh 29.91 in1012.9 mb 0.00 in0.0 mm 0.00 in/hr0.0 mm/hr 0.00 in0.0 mm
12:10 AM 38.3°F3.5°C 32.7°F0.4°C 80% 5.0 mph S8.0 kmh S 10.0 mph16.1 kmh 29.91 in1012.9 mb 0.00 in0.0 mm 0.00 in/hr0.0 mm/hr 0.00 in0.0 mm
12:05 AM 38.4°F3.6°C 32.8°F0.4°C 80% 4.0 mph SSE6.4 kmh SSE 10.0 mph16.1 kmh 29.91 in1012.9 mb 0.00 in0.0 mm 0.00 in/hr0.0 mm/hr 0.00 in0.0 mm
12:00 AM 38.3°F3.5°C 32.7°F0.4°C 80% 6.0 mph S9.7 kmh S 12.0 mph19.3 kmh 29.92 in1013.2 mb 0.00 in0.0 mm 0.00 in/hr0.0 mm/hr 0.00 in0.0 mm